createdAt,value
2023-02-04T00:03:53.158Z,29.50
2023-02-04T00:07:55.885Z,28.50
2023-02-04T00:11:58.633Z,27.10
2023-02-04T00:16:03.081Z,23.60
2023-02-04T00:20:06.762Z,26.20
2023-02-04T00:24:09.982Z,25.30
2023-02-04T00:28:12.845Z,22.70
2023-02-04T00:32:17.145Z,24.70
2023-02-04T00:36:20.046Z,28.23
2023-02-04T00:40:22.916Z,18.70
2023-02-04T00:44:25.705Z,25.10
2023-02-04T00:48:30.104Z,22.57
2023-02-04T00:52:33.314Z,29.60
2023-02-04T00:56:36.310Z,25.80
2023-02-04T01:00:39.169Z,24.00
2023-02-04T01:04:43.379Z,24.73
2023-02-04T01:08:46.154Z,20.23
2023-02-04T01:12:48.969Z,24.67
2023-02-04T01:16:51.961Z,20.20
2023-02-04T01:20:56.376Z,20.63
2023-02-04T01:24:59.218Z,33.87
2023-02-04T01:29:17.606Z,24.63
2023-02-04T01:33:20.373Z,25.63
2023-02-04T01:37:24.555Z,24.57
2023-02-04T01:41:28.909Z,28.57
2023-02-04T01:45:35.430Z,20.97
2023-02-04T01:49:39.334Z,27.57
2023-02-04T01:53:44.048Z,19.20
2023-02-04T01:57:47.482Z,32.37
2023-02-04T02:01:52.277Z,24.93
2023-02-04T02:05:56.528Z,24.33
2023-02-04T02:10:04.075Z,23.53
2023-02-04T02:14:07.098Z,20.80
2023-02-04T02:18:11.078Z,23.97
2023-02-04T02:22:19.177Z,26.67
2023-02-04T02:26:25.585Z,19.90
2023-02-04T02:30:30.415Z,21.67
2023-02-04T02:34:34.990Z,21.77
2023-02-04T02:38:39.217Z,18.97
2023-02-04T02:42:44.964Z,25.27
2023-02-04T02:46:47.997Z,25.73
2023-02-04T02:50:51.854Z,22.67
2023-02-04T02:54:56.767Z,22.07
2023-02-04T02:59:14.213Z,23.53
2023-02-04T03:03:22.220Z,22.13
2023-02-04T03:07:25.444Z,21.03
2023-02-04T03:11:29.882Z,25.73
2023-02-04T03:15:35.016Z,24.17
2023-02-04T03:19:38.653Z,28.37
2023-02-04T03:23:41.765Z,21.83
2023-02-04T03:27:46.947Z,30.07
2023-02-04T03:31:51.174Z,25.10
2023-02-04T03:35:54.040Z,23.57
2023-02-04T03:39:56.830Z,28.23
2023-02-04T03:43:59.568Z,27.47
2023-02-04T03:48:03.749Z,25.93
2023-02-04T03:52:07.126Z,24.83
2023-02-04T03:56:10.449Z,27.70
2023-02-04T04:00:14.724Z,25.37
2023-02-04T04:04:19.132Z,24.77
2023-02-04T04:08:21.883Z,21.43
2023-02-04T04:12:24.706Z,30.10
2023-02-04T04:16:27.474Z,23.70
2023-02-04T04:20:31.952Z,27.43
2023-02-04T04:24:34.892Z,17.63
2023-02-04T04:28:37.601Z,20.40
2023-02-04T04:32:40.515Z,27.77
2023-02-04T04:36:44.666Z,28.87
2023-02-04T04:40:47.518Z,23.30
2023-02-04T04:44:50.224Z,24.93
2023-02-04T04:48:52.982Z,32.83
2023-02-04T04:52:57.123Z,31.53
2023-02-04T04:56:59.926Z,33.13
2023-02-04T05:01:02.771Z,24.07
2023-02-04T05:05:06.011Z,23.77
2023-02-04T05:09:10.529Z,20.37
2023-02-04T05:13:13.585Z,22.73
2023-02-04T05:17:16.530Z,28.73
2023-02-04T05:21:19.356Z,20.27
2023-02-04T05:25:24.081Z,23.07
2023-02-04T05:29:26.906Z,16.97
2023-02-04T05:33:29.688Z,18.03
2023-02-04T05:37:32.608Z,23.00
2023-02-04T05:41:36.746Z,19.80
2023-02-04T05:45:39.564Z,24.47
2023-02-04T05:49:42.390Z,22.60
2023-02-04T05:53:45.175Z,29.30
2023-02-04T05:57:49.284Z,24.67
2023-02-04T06:01:52.302Z,21.83
2023-02-04T06:05:55.338Z,19.40
2023-02-04T06:09:59.548Z,27.30
2023-02-04T06:14:05.032Z,21.20
2023-02-04T06:18:09.144Z,19.80
2023-02-04T06:22:11.874Z,20.07
2023-02-04T06:26:15.088Z,27.90
2023-02-04T06:30:20.066Z,21.37
2023-02-04T06:34:22.853Z,17.10
2023-02-04T06:38:25.654Z,21.83
2023-02-04T06:42:29.522Z,26.80
2023-02-04T06:46:34.516Z,19.27
2023-02-04T06:50:37.478Z,17.97
2023-02-04T06:54:40.304Z,23.77
2023-02-04T06:58:43.076Z,21.33
2023-02-04T07:02:47.276Z,22.23
2023-02-04T07:06:50.112Z,25.77
2023-02-04T07:10:54.580Z,25.13
2023-02-04T07:14:57.538Z,25.30
2023-02-04T07:19:01.707Z,22.73
2023-02-04T07:23:04.637Z,20.20
2023-02-04T07:27:07.648Z,30.57
2023-02-04T07:31:10.511Z,21.07
2023-02-04T07:35:14.680Z,19.50
2023-02-04T07:39:17.478Z,15.33
2023-02-04T07:43:20.209Z,19.43
2023-02-04T07:47:22.992Z,21.33
2023-02-04T07:51:27.914Z,20.30
2023-02-04T07:55:31.009Z,18.60
2023-02-04T07:59:33.798Z,20.30
2023-02-04T08:03:37.185Z,21.50
2023-02-04T08:07:41.351Z,24.60
2023-02-04T08:11:44.137Z,20.90
2023-02-04T08:15:46.962Z,17.27
2023-02-04T08:19:49.788Z,24.03
2023-02-04T08:23:53.925Z,19.87
2023-02-04T08:27:56.852Z,20.07
2023-02-04T08:31:59.773Z,26.77
2023-02-04T08:36:02.578Z,27.63
2023-02-04T08:40:07.746Z,25.47
2023-02-04T08:44:10.520Z,27.13
2023-02-04T08:48:13.261Z,23.40
2023-02-04T08:52:16.056Z,15.87
2023-02-04T08:56:20.600Z,27.40
2023-02-04T09:00:23.967Z,33.60
2023-02-04T09:04:28.353Z,24.03
2023-02-04T09:08:31.110Z,29.40
2023-02-04T09:12:35.967Z,33.13
2023-02-04T09:16:38.776Z,23.33
2023-02-04T09:20:41.654Z,24.53
2023-02-04T09:24:44.449Z,21.03
2023-02-04T09:28:48.679Z,26.93
2023-02-04T09:32:51.491Z,22.30
2023-02-04T09:36:54.285Z,24.30
2023-02-04T09:41:00.770Z,25.07
2023-02-04T09:45:05.478Z,26.30
2023-02-04T09:49:12.138Z,27.03
2023-02-04T09:53:18.158Z,26.00
2023-02-04T09:57:21.731Z,20.17
2023-02-04T10:01:29.115Z,22.27
2023-02-04T10:05:33.619Z,27.10
2023-02-04T10:09:36.427Z,23.47
2023-02-04T10:13:43.320Z,21.87
2023-02-04T10:17:48.599Z,25.23
2023-02-04T10:21:51.489Z,22.33
2023-02-04T10:25:54.395Z,18.73
2023-02-04T10:29:57.799Z,23.73
2023-02-04T10:34:24.917Z,20.07
2023-02-04T10:38:27.783Z,22.30
2023-02-04T10:42:32.093Z,20.70
2023-02-04T10:46:34.967Z,26.17
2023-02-04T10:50:39.067Z,19.97
2023-02-04T10:54:41.904Z,21.90
2023-02-04T10:58:45.129Z,18.70
2023-02-04T11:02:53.026Z,17.77
2023-02-04T11:06:57.158Z,17.70
2023-02-04T11:11:02.821Z,19.00
2023-02-04T11:15:07.299Z,23.53
2023-02-04T11:19:14.458Z,20.97
2023-02-04T11:23:32.780Z,19.00
2023-02-04T11:27:41.009Z,18.80
2023-02-04T11:31:57.069Z,23.47
2023-02-04T11:36:04.595Z,15.23
2023-02-04T11:40:24.433Z,21.03
2023-02-04T11:44:27.614Z,17.40
2023-02-04T11:48:30.555Z,17.30
2023-02-04T11:52:36.394Z,19.70
2023-02-04T11:56:41.666Z,11.23
2023-02-04T12:00:45.667Z,18.83
2023-02-04T12:04:56.452Z,19.10
2023-02-04T12:09:07.076Z,12.97
2023-02-04T12:13:25.044Z,14.53
2023-02-04T12:17:27.864Z,21.80
2023-02-04T12:21:31.019Z,20.80
2023-02-04T12:25:34.092Z,15.07
2023-02-04T12:29:38.360Z,15.93
2023-02-04T12:33:41.052Z,25.53
2023-02-04T12:37:44.203Z,16.83
2023-02-04T12:41:46.951Z,19.77
2023-02-04T12:45:51.088Z,18.63
2023-02-04T12:49:53.931Z,10.80
2023-02-04T12:53:56.682Z,18.90
2023-02-04T12:57:59.799Z,16.37
2023-02-04T13:02:04.074Z,16.03
2023-02-04T13:06:07.226Z,15.60
2023-02-04T13:10:10.886Z,18.60
2023-02-04T13:14:13.655Z,15.73
2023-02-04T13:18:18.302Z,16.47
2023-02-04T13:22:21.130Z,14.40
2023-02-04T13:26:23.985Z,18.83
2023-02-04T13:30:26.787Z,16.90
2023-02-04T13:34:30.954Z,12.00
2023-02-04T13:38:33.926Z,18.90
2023-02-04T13:42:38.275Z,16.93
2023-02-04T13:46:41.056Z,19.73
2023-02-04T13:50:45.220Z,15.73
2023-02-04T13:54:48.159Z,19.67
2023-02-04T13:58:51.198Z,18.40
2023-02-04T14:02:53.944Z,19.53
2023-02-04T14:06:58.179Z,12.63
2023-02-04T14:11:01.014Z,13.27
2023-02-04T14:15:04.073Z,13.13
2023-02-04T14:19:07.349Z,18.03
2023-02-04T14:23:12.033Z,12.17
2023-02-04T14:27:14.838Z,19.33
2023-02-04T14:31:17.779Z,13.40
2023-02-04T14:35:21.517Z,19.20
2023-02-04T14:39:25.674Z,14.63
2023-02-04T14:43:28.465Z,12.87
2023-02-04T14:47:31.303Z,18.53
2023-02-04T14:51:34.082Z,15.13
2023-02-04T14:55:38.214Z,14.50
2023-02-04T14:59:41.025Z,12.70
2023-02-04T15:03:43.953Z,16.13
2023-02-04T15:07:46.682Z,18.30
2023-02-04T15:11:51.145Z,14.00
2023-02-04T15:15:53.956Z,17.47
2023-02-04T15:19:57.086Z,17.00
2023-02-04T15:23:59.882Z,11.47
2023-02-04T15:28:04.097Z,15.10
2023-02-04T15:32:07.018Z,16.43
2023-02-04T15:36:09.974Z,15.60
2023-02-04T15:40:13.354Z,12.50
2023-02-04T15:44:17.514Z,16.90
2023-02-04T15:48:21.007Z,14.33
2023-02-04T15:52:25.416Z,15.50
2023-02-04T15:56:28.493Z,15.53
2023-02-04T16:07:07.966Z,12.77
2023-02-04T16:11:10.736Z,13.40
2023-02-04T16:15:13.592Z,12.27
2023-02-04T16:19:16.374Z,13.60
2023-02-04T16:23:20.513Z,14.40
2023-02-04T16:39:38.919Z,12.50
2023-02-04T16:43:41.649Z,17.17
2023-02-04T16:47:44.422Z,19.33
2023-02-04T16:51:47.408Z,18.00
2023-02-04T16:55:51.539Z,18.67
2023-02-04T16:59:54.262Z,17.60
2023-02-04T17:03:58.928Z,14.77
2023-02-04T17:08:01.702Z,15.30
2023-02-04T17:12:06.125Z,26.07
2023-02-04T17:16:08.872Z,21.83
2023-02-04T17:20:13.446Z,16.53
2023-02-04T17:24:16.166Z,19.73
2023-02-04T17:28:20.396Z,15.77
2023-02-04T17:32:23.306Z,16.57
2023-02-04T17:36:26.170Z,11.93
2023-02-04T17:40:29.006Z,12.70
2023-02-04T17:44:33.119Z,16.13
2023-02-04T17:48:36.023Z,12.40
2023-02-04T17:52:39.003Z,11.70
2023-02-04T17:56:41.739Z,16.93
2023-02-04T18:00:48.110Z,17.07
2023-02-04T18:04:51.281Z,15.97
2023-02-04T18:08:56.409Z,19.33
2023-02-04T18:13:00.214Z,15.30
2023-02-04T18:17:11.598Z,19.20
2023-02-04T18:21:20.905Z,20.63
2023-02-04T18:25:24.466Z,20.33
2023-02-04T18:29:33.709Z,18.43
2023-02-04T18:33:41.495Z,16.57
2023-02-04T18:37:48.884Z,13.93
2023-02-04T18:41:52.616Z,15.40
2023-02-04T18:46:00.135Z,17.47
2023-02-04T18:50:23.366Z,12.60
2023-02-04T18:54:34.812Z,16.17
2023-02-04T18:58:40.939Z,32.07
2023-02-04T19:02:49.264Z,23.50
2023-02-04T19:06:54.943Z,24.27
2023-02-04T19:10:59.362Z,24.80
2023-02-04T19:15:02.346Z,24.77
2023-02-04T19:19:23.857Z,35.97
2023-02-04T19:23:27.943Z,36.13
2023-02-04T19:27:36.184Z,48.00
2023-02-04T19:31:38.957Z,45.17
2023-02-04T19:35:43.543Z,42.13
2023-02-04T19:39:50.698Z,35.77
2023-02-04T19:43:57.999Z,32.10
2023-02-04T19:48:02.523Z,26.47
2023-02-04T19:52:20.258Z,30.80
2023-02-04T19:56:36.461Z,21.50
2023-02-04T20:00:46.692Z,20.43
2023-02-04T20:04:54.025Z,26.00
2023-02-04T20:09:01.929Z,27.03
2023-02-04T20:13:20.112Z,19.93
2023-02-04T20:17:45.822Z,21.57
2023-02-04T20:22:03.821Z,17.93
2023-02-04T22:03:46.765Z,19.77
2023-02-04T22:07:50.255Z,21.00
2023-02-04T22:11:53.088Z,23.23
2023-02-04T22:15:55.855Z,20.37
2023-02-04T22:20:00.194Z,18.97
2023-02-04T22:24:02.980Z,21.80
2023-02-04T22:28:05.836Z,17.20
2023-02-04T22:32:08.985Z,17.73
2023-02-04T22:36:13.191Z,22.83
2023-02-04T22:40:15.924Z,20.23
2023-02-04T22:44:18.773Z,19.27
2023-02-04T22:48:21.555Z,20.20
2023-02-04T22:52:25.745Z,14.67
2023-02-04T22:56:28.804Z,21.43
2023-02-04T23:00:31.794Z,20.30
2023-02-04T23:04:34.605Z,21.23
2023-02-04T23:08:38.834Z,18.27
2023-02-04T23:12:41.573Z,20.40
2023-02-04T23:16:44.330Z,20.80
2023-02-04T23:20:47.147Z,17.10
2023-02-04T23:24:51.709Z,16.20
2023-02-04T23:28:54.452Z,17.13
2023-02-04T23:32:57.254Z,17.57
2023-02-04T23:37:00.099Z,17.20
2023-02-04T23:41:04.238Z,18.03
2023-02-04T23:45:07.834Z,18.57
2023-02-04T23:49:10.913Z,17.90
2023-02-04T23:53:13.787Z,19.80
2023-02-04T23:57:17.858Z,15.47
